sensor_id;sensor_type;location;lat;lon;timestamp;temperature;humidity
27619;DHT22;15039;50.830;4.730;2022-11-15T00:01:53;12.10;99.90
27619;DHT22;15039;50.830;4.730;2022-11-15T00:04:19;12.20;99.90
27619;DHT22;15039;50.830;4.730;2022-11-15T00:06:48;12.10;99.90
27619;DHT22;15039;50.830;4.730;2022-11-15T00:09:13;12.10;99.90
27619;DHT22;15039;50.830;4.730;2022-11-15T00:11:39;12.10;99.90
27619;DHT22;15039;50.830;4.730;2022-11-15T00:14:04;12.20;99.90
27619;DHT22;15039;50.830;4.730;2022-11-15T00:16:30;12.10;99.90
27619;DHT22;15039;50.830;4.730;2022-11-15T00:18:55;12.20;99.90
27619;DHT22;15039;50.830;4.730;2022-11-15T00:21:22;12.10;99.90
27619;DHT22;15039;50.830;4.730;2022-11-15T00:23:48;12.10;99.90
27619;DHT22;15039;50.830;4.730;2022-11-15T00:26:14;12.20;99.90
27619;DHT22;15039;50.830;4.730;2022-11-15T00:28:41;12.20;99.90
27619;DHT22;15039;50.830;4.730;2022-11-15T00:31:11;12.20;99.90
27619;DHT22;15039;50.830;4.730;2022-11-15T00:33:37;12.30;99.90
27619;DHT22;15039;50.830;4.730;2022-11-15T00:36:08;12.40;99.90
27619;DHT22;15039;50.830;4.730;2022-11-15T00:38:36;12.50;99.90
27619;DHT22;15039;50.830;4.730;2022-11-15T00:41:03;12.40;99.90
27619;DHT22;15039;50.830;4.730;2022-11-15T00:43:29;12.40;99.90
27619;DHT22;15039;50.830;4.730;2022-11-15T00:45:55;12.40;99.90
27619;DHT22;15039;50.830;4.730;2022-11-15T00:48:21;12.30;99.90
27619;DHT22;15039;50.830;4.730;2022-11-15T00:50:47;12.40;99.90
27619;DHT22;15039;50.830;4.730;2022-11-15T00:53:12;12.40;99.90
27619;DHT22;15039;50.830;4.730;2022-11-15T00:55:38;12.40;99.90
27619;DHT22;15039;50.830;4.730;2022-11-15T00:58:03;12.40;99.90
27619;DHT22;15039;50.830;4.730;2022-11-15T01:00:29;12.50;99.90
27619;DHT22;15039;50.830;4.730;2022-11-15T01:02:54;12.50;99.90
27619;DHT22;15039;50.830;4.730;2022-11-15T01:05:20;12.50;99.90
27619;DHT22;15039;50.830;4.730;2022-11-15T01:07:46;12.60;99.90
27619;DHT22;15039;50.830;4.730;2022-11-15T01:10:12;12.70;99.90
27619;DHT22;15039;50.830;4.730;2022-11-15T01:12:38;12.70;99.90
27619;DHT22;15039;50.830;4.730;2022-11-15T01:15:04;12.60;99.90
27619;DHT22;15039;50.830;4.730;2022-11-15T01:17:30;12.60;99.90
27619;DHT22;15039;50.830;4.730;2022-11-15T01:19:56;12.60;99.90
27619;DHT22;15039;50.830;4.730;2022-11-15T01:22:22;12.60;99.90
27619;DHT22;15039;50.830;4.730;2022-11-15T01:24:50;12.60;99.90
27619;DHT22;15039;50.830;4.730;2022-11-15T01:27:15;12.70;99.90
27619;DHT22;15039;50.830;4.730;2022-11-15T01:29:41;12.70;99.90
27619;DHT22;15039;50.830;4.730;2022-11-15T01:32:06;12.80;99.90
27619;DHT22;15039;50.830;4.730;2022-11-15T01:34:32;12.80;99.90
27619;DHT22;15039;50.830;4.730;2022-11-15T01:36:58;12.80;99.90
27619;DHT22;15039;50.830;4.730;2022-11-15T01:39:24;12.80;99.90
27619;DHT22;15039;50.830;4.730;2022-11-15T01:41:50;12.80;99.90
27619;DHT22;15039;50.830;4.730;2022-11-15T01:46:59;12.90;99.90
27619;DHT22;15039;50.830;4.730;2022-11-15T01:49:27;12.80;99.90
27619;DHT22;15039;50.830;4.730;2022-11-15T01:51:55;12.80;99.90
27619;DHT22;15039;50.830;4.730;2022-11-15T01:54:22;12.80;99.90
27619;DHT22;15039;50.830;4.730;2022-11-15T01:56:55;12.80;99.90
27619;DHT22;15039;50.830;4.730;2022-11-15T01:59:24;12.80;99.90
27619;DHT22;15039;50.830;4.730;2022-11-15T02:01:49;12.90;99.90
27619;DHT22;15039;50.830;4.730;2022-11-15T02:04:25;12.90;99.90
27619;DHT22;15039;50.830;4.730;2022-11-15T02:06:51;12.80;99.90
27619;DHT22;15039;50.830;4.730;2022-11-15T02:09:17;12.70;99.90
27619;DHT22;15039;50.830;4.730;2022-11-15T02:11:44;12.70;99.90
27619;DHT22;15039;50.830;4.730;2022-11-15T02:14:12;12.70;99.90
27619;DHT22;15039;50.830;4.730;2022-11-15T02:19:29;12.80;99.90
27619;DHT22;15039;50.830;4.730;2022-11-15T02:30:44;12.70;99.90
27619;DHT22;15039;50.830;4.730;2022-11-15T02:33:34;12.60;99.90
27619;DHT22;15039;50.830;4.730;2022-11-15T02:36:02;12.60;99.90
27619;DHT22;15039;50.830;4.730;2022-11-15T02:44:17;12.50;99.90
27619;DHT22;15039;50.830;4.730;2022-11-15T02:47:06;12.50;99.90
27619;DHT22;15039;50.830;4.730;2022-11-15T02:49:51;12.50;99.90
27619;DHT22;15039;50.830;4.730;2022-11-15T02:52:22;12.40;99.90
27619;DHT22;15039;50.830;4.730;2022-11-15T03:00:18;12.60;99.90
27619;DHT22;15039;50.830;4.730;2022-11-15T03:05:38;12.70;99.90
27619;DHT22;15039;50.830;4.730;2022-11-15T03:13:27;12.60;99.90
27619;DHT22;15039;50.830;4.730;2022-11-15T03:16:19;12.70;99.90
27619;DHT22;15039;50.830;4.730;2022-11-15T03:18:49;12.70;99.90
27619;DHT22;15039;50.830;4.730;2022-11-15T03:21:19;12.70;99.90
27619;DHT22;15039;50.830;4.730;2022-11-15T03:23:47;12.60;99.90
27619;DHT22;15039;50.830;4.730;2022-11-15T03:26:16;12.60;99.90
27619;DHT22;15039;50.830;4.730;2022-11-15T03:28:52;12.60;99.90
27619;DHT22;15039;50.830;4.730;2022-11-15T03:31:22;12.60;99.90
27619;DHT22;15039;50.830;4.730;2022-11-15T03:34:09;12.60;99.90
27619;DHT22;15039;50.830;4.730;2022-11-15T03:36:36;12.50;99.90
27619;DHT22;15039;50.830;4.730;2022-11-15T03:39:05;12.50;99.90
27619;DHT22;15039;50.830;4.730;2022-11-15T03:44:50;12.70;99.90
27619;DHT22;15039;50.830;4.730;2022-11-15T03:47:44;12.70;99.90
27619;DHT22;15039;50.830;4.730;2022-11-15T03:50:15;12.70;99.90
27619;DHT22;15039;50.830;4.730;2022-11-15T03:52:42;12.50;99.90
27619;DHT22;15039;50.830;4.730;2022-11-15T03:55:10;12.60;99.90
27619;DHT22;15039;50.830;4.730;2022-11-15T03:57:36;12.70;99.90
27619;DHT22;15039;50.830;4.730;2022-11-15T04:00:04;12.50;99.90
27619;DHT22;15039;50.830;4.730;2022-11-15T04:02:30;12.50;99.90
27619;DHT22;15039;50.830;4.730;2022-11-15T04:04:55;12.60;99.90
27619;DHT22;15039;50.830;4.730;2022-11-15T04:07:21;12.50;99.90
27619;DHT22;15039;50.830;4.730;2022-11-15T04:09:47;12.50;99.90
27619;DHT22;15039;50.830;4.730;2022-11-15T04:12:31;12.40;99.90
27619;DHT22;15039;50.830;4.730;2022-11-15T04:17:41;12.20;99.90
27619;DHT22;15039;50.830;4.730;2022-11-15T04:23:08;12.30;99.90
27619;DHT22;15039;50.830;4.730;2022-11-15T04:25:54;12.30;99.90
27619;DHT22;15039;50.830;4.730;2022-11-15T04:28:20;12.30;99.90
27619;DHT22;15039;50.830;4.730;2022-11-15T04:30:46;12.30;99.90
27619;DHT22;15039;50.830;4.730;2022-11-15T04:33:12;12.20;99.90
27619;DHT22;15039;50.830;4.730;2022-11-15T04:35:38;12.20;99.90
27619;DHT22;15039;50.830;4.730;2022-11-15T04:38:06;12.10;99.90
27619;DHT22;15039;50.830;4.730;2022-11-15T04:40:32;12.10;99.90
27619;DHT22;15039;50.830;4.730;2022-11-15T04:42:58;12.10;99.90
27619;DHT22;15039;50.830;4.730;2022-11-15T04:45:23;12.00;99.90
27619;DHT22;15039;50.830;4.730;2022-11-15T04:47:49;11.90;99.90
27619;DHT22;15039;50.830;4.730;2022-11-15T04:50:16;11.90;99.90
27619;DHT22;15039;50.830;4.730;2022-11-15T04:52:51;11.70;99.90
27619;DHT22;15039;50.830;4.730;2022-11-15T04:55:17;11.80;99.90
27619;DHT22;15039;50.830;4.730;2022-11-15T04:57:43;11.80;99.90
27619;DHT22;15039;50.830;4.730;2022-11-15T05:00:11;11.80;99.90
27619;DHT22;15039;50.830;4.730;2022-11-15T05:02:37;11.80;99.90
27619;DHT22;15039;50.830;4.730;2022-11-15T05:05:21;11.80;99.90
27619;DHT22;15039;50.830;4.730;2022-11-15T05:07:47;11.90;99.90
27619;DHT22;15039;50.830;4.730;2022-11-15T05:10:13;11.80;99.90
27619;DHT22;15039;50.830;4.730;2022-11-15T05:12:39;11.90;99.90
27619;DHT22;15039;50.830;4.730;2022-11-15T05:15:05;11.80;99.90
27619;DHT22;15039;50.830;4.730;2022-11-15T05:17:30;11.70;99.90
27619;DHT22;15039;50.830;4.730;2022-11-15T05:19:56;11.60;99.90
27619;DHT22;15039;50.830;4.730;2022-11-15T05:22:22;11.60;99.90
27619;DHT22;15039;50.830;4.730;2022-11-15T05:24:48;11.60;99.90
27619;DHT22;15039;50.830;4.730;2022-11-15T05:27:13;11.60;99.90
27619;DHT22;15039;50.830;4.730;2022-11-15T05:29:39;11.60;99.90
27619;DHT22;15039;50.830;4.730;2022-11-15T05:32:06;11.70;99.90
27619;DHT22;15039;50.830;4.730;2022-11-15T05:34:32;11.60;99.90
27619;DHT22;15039;50.830;4.730;2022-11-15T05:36:57;11.60;99.90
27619;DHT22;15039;50.830;4.730;2022-11-15T05:39:24;11.50;99.90
27619;DHT22;15039;50.830;4.730;2022-11-15T05:42:10;11.50;99.90
27619;DHT22;15039;50.830;4.730;2022-11-15T05:44:38;11.50;99.90
27619;DHT22;15039;50.830;4.730;2022-11-15T05:47:07;11.30;99.90
27619;DHT22;15039;50.830;4.730;2022-11-15T05:49:36;11.30;99.90
27619;DHT22;15039;50.830;4.730;2022-11-15T05:52:05;11.20;99.90
27619;DHT22;15039;50.830;4.730;2022-11-15T05:54:32;11.20;99.90
27619;DHT22;15039;50.830;4.730;2022-11-15T05:56:58;11.20;99.90
27619;DHT22;15039;50.830;4.730;2022-11-15T05:59:25;11.10;99.90
27619;DHT22;15039;50.830;4.730;2022-11-15T06:01:53;11.10;99.90
27619;DHT22;15039;50.830;4.730;2022-11-15T06:04:19;11.00;99.90
27619;DHT22;15039;50.830;4.730;2022-11-15T06:06:44;10.90;99.90
27619;DHT22;15039;50.830;4.730;2022-11-15T06:09:10;11.00;99.90
27619;DHT22;15039;50.830;4.730;2022-11-15T06:11:35;11.10;99.90
27619;DHT22;15039;50.830;4.730;2022-11-15T06:14:01;11.00;99.90
27619;DHT22;15039;50.830;4.730;2022-11-15T06:16:27;11.00;99.90
27619;DHT22;15039;50.830;4.730;2022-11-15T06:18:52;11.00;99.90
27619;DHT22;15039;50.830;4.730;2022-11-15T06:21:18;10.90;99.90
27619;DHT22;15039;50.830;4.730;2022-11-15T06:23:43;10.90;99.90
27619;DHT22;15039;50.830;4.730;2022-11-15T06:26:09;10.90;99.90
27619;DHT22;15039;50.830;4.730;2022-11-15T06:28:35;10.80;99.90
27619;DHT22;15039;50.830;4.730;2022-11-15T06:31:09;10.80;99.90
27619;DHT22;15039;50.830;4.730;2022-11-15T06:33:36;10.60;99.90
27619;DHT22;15039;50.830;4.730;2022-11-15T06:36:10;10.50;99.90
27619;DHT22;15039;50.830;4.730;2022-11-15T06:38:39;10.50;99.90
27619;DHT22;15039;50.830;4.730;2022-11-15T06:41:06;10.40;99.90
27619;DHT22;15039;50.830;4.730;2022-11-15T06:43:33;10.40;99.90
27619;DHT22;15039;50.830;4.730;2022-11-15T06:46:00;10.30;99.90
27619;DHT22;15039;50.830;4.730;2022-11-15T06:48:26;10.30;99.90
27619;DHT22;15039;50.830;4.730;2022-11-15T06:50:57;10.40;99.90
27619;DHT22;15039;50.830;4.730;2022-11-15T06:53:23;10.30;99.90
27619;DHT22;15039;50.830;4.730;2022-11-15T06:55:49;10.30;99.90
27619;DHT22;15039;50.830;4.730;2022-11-15T06:58:15;10.30;99.90
27619;DHT22;15039;50.830;4.730;2022-11-15T07:00:41;10.30;99.90
27619;DHT22;15039;50.830;4.730;2022-11-15T07:03:07;10.10;99.90
27619;DHT22;15039;50.830;4.730;2022-11-15T07:05:33;10.20;99.90
27619;DHT22;15039;50.830;4.730;2022-11-15T07:07:59;10.20;99.90
27619;DHT22;15039;50.830;4.730;2022-11-15T07:10:27;10.30;99.90
27619;DHT22;15039;50.830;4.730;2022-11-15T07:12:53;10.30;99.90
27619;DHT22;15039;50.830;4.730;2022-11-15T07:15:21;10.40;99.90
27619;DHT22;15039;50.830;4.730;2022-11-15T07:17:47;10.40;99.90
27619;DHT22;15039;50.830;4.730;2022-11-15T07:20:13;10.40;99.90
27619;DHT22;15039;50.830;4.730;2022-11-15T07:22:42;10.40;99.90
27619;DHT22;15039;50.830;4.730;2022-11-15T07:25:11;10.30;99.90
27619;DHT22;15039;50.830;4.730;2022-11-15T07:27:37;10.30;99.90
27619;DHT22;15039;50.830;4.730;2022-11-15T07:30:04;10.30;99.90
27619;DHT22;15039;50.830;4.730;2022-11-15T07:32:30;10.30;99.90
27619;DHT22;15039;50.830;4.730;2022-11-15T07:34:55;10.30;99.90
27619;DHT22;15039;50.830;4.730;2022-11-15T07:37:21;10.40;99.90
27619;DHT22;15039;50.830;4.730;2022-11-15T07:39:47;10.30;99.90
27619;DHT22;15039;50.830;4.730;2022-11-15T07:42:12;10.30;99.90
27619;DHT22;15039;50.830;4.730;2022-11-15T07:44:56;10.30;99.90
27619;DHT22;15039;50.830;4.730;2022-11-15T07:47:22;10.30;99.90
27619;DHT22;15039;50.830;4.730;2022-11-15T07:49:47;10.30;99.90
27619;DHT22;15039;50.830;4.730;2022-11-15T07:52:13;10.40;99.90
27619;DHT22;15039;50.830;4.730;2022-11-15T07:54:39;10.50;99.90
27619;DHT22;15039;50.830;4.730;2022-11-15T07:57:05;10.40;99.90
27619;DHT22;15039;50.830;4.730;2022-11-15T07:59:32;10.40;99.90
27619;DHT22;15039;50.830;4.730;2022-11-15T08:01:58;10.40;99.90
27619;DHT22;15039;50.830;4.730;2022-11-15T08:04:23;10.40;99.90
27619;DHT22;15039;50.830;4.730;2022-11-15T08:06:49;10.40;99.90
27619;DHT22;15039;50.830;4.730;2022-11-15T08:09:15;10.30;99.90
27619;DHT22;15039;50.830;4.730;2022-11-15T08:11:40;10.40;99.90
27619;DHT22;15039;50.830;4.730;2022-11-15T08:14:06;10.40;99.90
27619;DHT22;15039;50.830;4.730;2022-11-15T08:16:31;10.30;99.90
27619;DHT22;15039;50.830;4.730;2022-11-15T08:18:57;10.40;99.90
27619;DHT22;15039;50.830;4.730;2022-11-15T08:21:23;10.30;99.90
27619;DHT22;15039;50.830;4.730;2022-11-15T08:23:48;10.40;99.90
27619;DHT22;15039;50.830;4.730;2022-11-15T08:26:14;10.30;99.90
27619;DHT22;15039;50.830;4.730;2022-11-15T08:28:41;10.30;99.90
27619;DHT22;15039;50.830;4.730;2022-11-15T08:31:06;10.30;99.90
27619;DHT22;15039;50.830;4.730;2022-11-15T08:33:32;10.40;99.90
27619;DHT22;15039;50.830;4.730;2022-11-15T08:36:01;10.40;99.90
27619;DHT22;15039;50.830;4.730;2022-11-15T08:38:27;10.40;99.90
27619;DHT22;15039;50.830;4.730;2022-11-15T08:41:01;10.50;99.90
27619;DHT22;15039;50.830;4.730;2022-11-15T08:43:26;10.50;99.90
27619;DHT22;15039;50.830;4.730;2022-11-15T08:45:56;10.60;99.90
27619;DHT22;15039;50.830;4.730;2022-11-15T08:48:21;10.50;99.90
27619;DHT22;15039;50.830;4.730;2022-11-15T08:50:47;10.60;99.90
27619;DHT22;15039;50.830;4.730;2022-11-15T08:53:13;10.70;99.90
27619;DHT22;15039;50.830;4.730;2022-11-15T08:55:39;10.70;99.90
27619;DHT22;15039;50.830;4.730;2022-11-15T08:58:05;10.70;99.90
27619;DHT22;15039;50.830;4.730;2022-11-15T09:00:31;10.80;99.90
27619;DHT22;15039;50.830;4.730;2022-11-15T09:02:57;10.80;99.90
27619;DHT22;15039;50.830;4.730;2022-11-15T09:05:22;10.90;99.90
27619;DHT22;15039;50.830;4.730;2022-11-15T09:07:53;11.00;99.90
27619;DHT22;15039;50.830;4.730;2022-11-15T09:10:19;11.00;99.90
27619;DHT22;15039;50.830;4.730;2022-11-15T09:12:45;11.20;99.90
27619;DHT22;15039;50.830;4.730;2022-11-15T09:15:14;11.00;99.90
27619;DHT22;15039;50.830;4.730;2022-11-15T09:17:40;11.10;99.90
27619;DHT22;15039;50.830;4.730;2022-11-15T09:20:06;11.20;99.90
27619;DHT22;15039;50.830;4.730;2022-11-15T09:22:32;11.20;99.90
27619;DHT22;15039;50.830;4.730;2022-11-15T09:24:58;11.20;99.90
27619;DHT22;15039;50.830;4.730;2022-11-15T09:27:27;11.30;99.90
27619;DHT22;15039;50.830;4.730;2022-11-15T09:29:53;11.30;99.90
27619;DHT22;15039;50.830;4.730;2022-11-15T09:32:19;11.40;99.90
27619;DHT22;15039;50.830;4.730;2022-11-15T09:34:44;11.40;99.90
27619;DHT22;15039;50.830;4.730;2022-11-15T09:37:10;11.50;99.90
27619;DHT22;15039;50.830;4.730;2022-11-15T09:39:37;11.40;99.90
27619;DHT22;15039;50.830;4.730;2022-11-15T09:42:39;11.40;99.90
27619;DHT22;15039;50.830;4.730;2022-11-15T09:45:37;11.40;99.90
27619;DHT22;15039;50.830;4.730;2022-11-15T09:48:48;11.50;99.90
27619;DHT22;15039;50.830;4.730;2022-11-15T09:51:40;11.40;99.90
27619;DHT22;15039;50.830;4.730;2022-11-15T09:56:41;11.50;99.90
27619;DHT22;15039;50.830;4.730;2022-11-15T09:59:27;11.60;99.90
27619;DHT22;15039;50.830;4.730;2022-11-15T10:04:45;11.80;99.90
27619;DHT22;15039;50.830;4.730;2022-11-15T10:09:53;11.90;99.90
27619;DHT22;15039;50.830;4.730;2022-11-15T10:12:22;11.90;99.90
27619;DHT22;15039;50.830;4.730;2022-11-15T10:14:50;11.90;99.90
27619;DHT22;15039;50.830;4.730;2022-11-15T10:20:24;12.00;99.90
27619;DHT22;15039;50.830;4.730;2022-11-15T10:22:51;11.90;99.90
27619;DHT22;15039;50.830;4.730;2022-11-15T10:25:21;11.80;99.90
27619;DHT22;15039;50.830;4.730;2022-11-15T10:27:56;11.80;99.90
27619;DHT22;15039;50.830;4.730;2022-11-15T10:30:23;11.90;99.90
27619;DHT22;15039;50.830;4.730;2022-11-15T10:32:49;12.00;99.90
27619;DHT22;15039;50.830;4.730;2022-11-15T10:35:29;12.10;99.90
27619;DHT22;15039;50.830;4.730;2022-11-15T10:38:08;12.10;99.90
27619;DHT22;15039;50.830;4.730;2022-11-15T10:40:35;12.10;99.90
27619;DHT22;15039;50.830;4.730;2022-11-15T10:45:36;12.30;99.90
27619;DHT22;15039;50.830;4.730;2022-11-15T10:50:45;12.50;99.90
27619;DHT22;15039;50.830;4.730;2022-11-15T10:55:49;12.60;99.90
27619;DHT22;15039;50.830;4.730;2022-11-15T10:58:41;12.60;99.90
27619;DHT22;15039;50.830;4.730;2022-11-15T11:01:24;12.60;99.90
27619;DHT22;15039;50.830;4.730;2022-11-15T11:04:00;12.50;99.90
27619;DHT22;15039;50.830;4.730;2022-11-15T11:06:26;12.50;99.90
27619;DHT22;15039;50.830;4.730;2022-11-15T11:09:04;12.60;99.90
27619;DHT22;15039;50.830;4.730;2022-11-15T11:14:13;12.70;99.90
27619;DHT22;15039;50.830;4.730;2022-11-15T11:16:52;12.70;99.90
27619;DHT22;15039;50.830;4.730;2022-11-15T11:25:18;13.00;99.90
27619;DHT22;15039;50.830;4.730;2022-11-15T11:27:43;13.00;99.90
27619;DHT22;15039;50.830;4.730;2022-11-15T11:30:21;13.10;99.90
27619;DHT22;15039;50.830;4.730;2022-11-15T11:33:13;13.20;99.90
27619;DHT22;15039;50.830;4.730;2022-11-15T11:38:44;13.30;99.90
27619;DHT22;15039;50.830;4.730;2022-11-15T11:41:46;13.40;99.90
27619;DHT22;15039;50.830;4.730;2022-11-15T11:44:33;13.60;99.90
27619;DHT22;15039;50.830;4.730;2022-11-15T11:47:05;13.70;99.90
27619;DHT22;15039;50.830;4.730;2022-11-15T11:52:23;13.80;99.90
27619;DHT22;15039;50.830;4.730;2022-11-15T11:55:15;13.80;99.90
27619;DHT22;15039;50.830;4.730;2022-11-15T12:01:24;13.70;99.90
27619;DHT22;15039;50.830;4.730;2022-11-15T12:06:51;13.80;99.90
27619;DHT22;15039;50.830;4.730;2022-11-15T12:09:49;13.90;99.90
27619;DHT22;15039;50.830;4.730;2022-11-15T12:12:44;13.90;99.90
27619;DHT22;15039;50.830;4.730;2022-11-15T12:15:15;13.90;99.90
27619;DHT22;15039;50.830;4.730;2022-11-15T12:17:42;13.90;99.90
27619;DHT22;15039;50.830;4.730;2022-11-15T12:20:20;13.90;99.90
27619;DHT22;15039;50.830;4.730;2022-11-15T12:22:58;13.90;99.90
27619;DHT22;15039;50.830;4.730;2022-11-15T12:33:34;14.00;99.90
27619;DHT22;15039;50.830;4.730;2022-11-15T12:36:34;14.00;99.90
27619;DHT22;15039;50.830;4.730;2022-11-15T12:39:01;14.00;99.90
27619;DHT22;15039;50.830;4.730;2022-11-15T12:41:36;14.00;99.90
27619;DHT22;15039;50.830;4.730;2022-11-15T12:44:02;14.00;99.90
27619;DHT22;15039;50.830;4.730;2022-11-15T12:49:07;14.00;99.90
27619;DHT22;15039;50.830;4.730;2022-11-15T12:59:53;13.90;99.90
27619;DHT22;15039;50.830;4.730;2022-11-15T13:02:25;13.90;99.90
27619;DHT22;15039;50.830;4.730;2022-11-15T13:04:54;13.90;99.90
27619;DHT22;15039;50.830;4.730;2022-11-15T13:17:55;14.30;99.90
27619;DHT22;15039;50.830;4.730;2022-11-15T13:20:31;14.40;99.90
27619;DHT22;15039;50.830;4.730;2022-11-15T13:23:07;14.40;99.90
27619;DHT22;15039;50.830;4.730;2022-11-15T13:33:46;14.40;99.90
27619;DHT22;15039;50.830;4.730;2022-11-15T13:36:19;14.40;99.90
27619;DHT22;15039;50.830;4.730;2022-11-15T13:39:26;14.40;99.90
27619;DHT22;15039;50.830;4.730;2022-11-15T13:41:50;14.40;99.90
27619;DHT22;15039;50.830;4.730;2022-11-15T13:44:21;14.40;99.90
27619;DHT22;15039;50.830;4.730;2022-11-15T13:46:47;14.50;99.90
27619;DHT22;15039;50.830;4.730;2022-11-15T13:49:13;14.40;99.90
27619;DHT22;15039;50.830;4.730;2022-11-15T13:51:47;14.50;99.90
27619;DHT22;15039;50.830;4.730;2022-11-15T13:54:16;14.50;99.90
27619;DHT22;15039;50.830;4.730;2022-11-15T13:56:47;14.60;99.90
27619;DHT22;15039;50.830;4.730;2022-11-15T13:59:24;14.40;99.90
27619;DHT22;15039;50.830;4.730;2022-11-15T14:01:50;14.50;99.90
27619;DHT22;15039;50.830;4.730;2022-11-15T14:04:20;14.40;99.90
27619;DHT22;15039;50.830;4.730;2022-11-15T14:06:53;14.30;99.90
27619;DHT22;15039;50.830;4.730;2022-11-15T14:11:53;14.40;99.90
27619;DHT22;15039;50.830;4.730;2022-11-15T14:14:21;14.40;99.90
27619;DHT22;15039;50.830;4.730;2022-11-15T14:16:53;14.30;99.90
27619;DHT22;15039;50.830;4.730;2022-11-15T14:22:14;14.40;99.90
27619;DHT22;15039;50.830;4.730;2022-11-15T14:24:41;14.40;99.90
27619;DHT22;15039;50.830;4.730;2022-11-15T14:29:47;14.40;99.90
27619;DHT22;15039;50.830;4.730;2022-11-15T14:34:41;14.30;99.90
27619;DHT22;15039;50.830;4.730;2022-11-15T14:37:23;14.30;99.90
27619;DHT22;15039;50.830;4.730;2022-11-15T14:39:49;14.20;99.90
27619;DHT22;15039;50.830;4.730;2022-11-15T14:42:15;14.20;99.90
27619;DHT22;15039;50.830;4.730;2022-11-15T14:44:41;14.10;99.90
27619;DHT22;15039;50.830;4.730;2022-11-15T14:47:07;14.00;99.90
27619;DHT22;15039;50.830;4.730;2022-11-15T14:49:32;13.90;99.90
27619;DHT22;15039;50.830;4.730;2022-11-15T14:51:58;13.80;99.90
27619;DHT22;15039;50.830;4.730;2022-11-15T14:54:23;13.80;99.90
27619;DHT22;15039;50.830;4.730;2022-11-15T14:56:49;13.80;99.90
27619;DHT22;15039;50.830;4.730;2022-11-15T14:59:15;13.80;99.90
27619;DHT22;15039;50.830;4.730;2022-11-15T15:01:40;13.90;99.90
27619;DHT22;15039;50.830;4.730;2022-11-15T15:04:06;13.80;99.90
27619;DHT22;15039;50.830;4.730;2022-11-15T15:06:32;13.80;99.90
27619;DHT22;15039;50.830;4.730;2022-11-15T15:08:57;13.70;99.90
27619;DHT22;15039;50.830;4.730;2022-11-15T15:11:27;13.70;99.90
27619;DHT22;15039;50.830;4.730;2022-11-15T15:13:53;13.70;99.90
27619;DHT22;15039;50.830;4.730;2022-11-15T15:16:22;13.60;99.90
27619;DHT22;15039;50.830;4.730;2022-11-15T15:18:48;13.60;99.90
27619;DHT22;15039;50.830;4.730;2022-11-15T15:21:24;13.50;99.90
27619;DHT22;15039;50.830;4.730;2022-11-15T15:23:52;13.50;99.90
27619;DHT22;15039;50.830;4.730;2022-11-15T15:26:19;13.50;99.90
27619;DHT22;15039;50.830;4.730;2022-11-15T15:28:45;13.50;99.90
27619;DHT22;15039;50.830;4.730;2022-11-15T15:31:11;13.40;99.90
27619;DHT22;15039;50.830;4.730;2022-11-15T15:33:37;13.40;99.90
27619;DHT22;15039;50.830;4.730;2022-11-15T15:36:03;13.40;99.90
27619;DHT22;15039;50.830;4.730;2022-11-15T15:38:29;13.40;99.90
27619;DHT22;15039;50.830;4.730;2022-11-15T15:40:54;13.40;99.90
27619;DHT22;15039;50.830;4.730;2022-11-15T15:43:20;13.40;99.90
27619;DHT22;15039;50.830;4.730;2022-11-15T15:45:46;13.40;99.90
27619;DHT22;15039;50.830;4.730;2022-11-15T15:48:16;13.40;99.90
27619;DHT22;15039;50.830;4.730;2022-11-15T15:50:42;13.40;99.90
27619;DHT22;15039;50.830;4.730;2022-11-15T15:53:09;13.40;99.90
27619;DHT22;15039;50.830;4.730;2022-11-15T15:55:38;13.40;99.90
27619;DHT22;15039;50.830;4.730;2022-11-15T15:58:04;13.20;99.90
27619;DHT22;15039;50.830;4.730;2022-11-15T16:00:31;13.20;99.90
27619;DHT22;15039;50.830;4.730;2022-11-15T16:03:00;13.10;99.90
27619;DHT22;15039;50.830;4.730;2022-11-15T16:05:25;13.00;99.90
27619;DHT22;15039;50.830;4.730;2022-11-15T16:07:51;13.10;99.90
27619;DHT22;15039;50.830;4.730;2022-11-15T16:10:26;13.10;99.90
27619;DHT22;15039;50.830;4.730;2022-11-15T16:12:53;13.10;99.90
27619;DHT22;15039;50.830;4.730;2022-11-15T16:15:20;13.00;99.90
27619;DHT22;15039;50.830;4.730;2022-11-15T16:17:52;13.00;99.90
27619;DHT22;15039;50.830;4.730;2022-11-15T16:20:34;13.00;99.90
27619;DHT22;15039;50.830;4.730;2022-11-15T16:23:02;13.00;99.90
27619;DHT22;15039;50.830;4.730;2022-11-15T16:25:28;13.00;99.90
27619;DHT22;15039;50.830;4.730;2022-11-15T16:27:53;13.10;99.90
27619;DHT22;15039;50.830;4.730;2022-11-15T16:30:21;13.10;99.90
27619;DHT22;15039;50.830;4.730;2022-11-15T16:32:47;13.10;99.90
27619;DHT22;15039;50.830;4.730;2022-11-15T16:35:14;13.00;99.90
27619;DHT22;15039;50.830;4.730;2022-11-15T16:37:40;13.10;99.90
27619;DHT22;15039;50.830;4.730;2022-11-15T16:42:50;13.00;99.90
27619;DHT22;15039;50.830;4.730;2022-11-15T16:45:15;13.00;99.90
27619;DHT22;15039;50.830;4.730;2022-11-15T16:47:41;13.00;99.90
27619;DHT22;15039;50.830;4.730;2022-11-15T16:50:22;13.10;99.90
27619;DHT22;15039;50.830;4.730;2022-11-15T16:52:53;13.00;99.90
27619;DHT22;15039;50.830;4.730;2022-11-15T16:55:19;13.00;99.90
27619;DHT22;15039;50.830;4.730;2022-11-15T16:57:45;13.00;99.90
27619;DHT22;15039;50.830;4.730;2022-11-15T17:00:11;13.10;99.90
27619;DHT22;15039;50.830;4.730;2022-11-15T17:02:42;13.00;99.90
27619;DHT22;15039;50.830;4.730;2022-11-15T17:05:08;13.00;99.90
27619;DHT22;15039;50.830;4.730;2022-11-15T17:07:34;13.00;99.90
27619;DHT22;15039;50.830;4.730;2022-11-15T17:09:59;13.10;99.90
27619;DHT22;15039;50.830;4.730;2022-11-15T17:12:25;13.00;99.90
27619;DHT22;15039;50.830;4.730;2022-11-15T17:14:50;13.00;99.90
27619;DHT22;15039;50.830;4.730;2022-11-15T17:17:16;13.10;99.90
27619;DHT22;15039;50.830;4.730;2022-11-15T17:19:42;13.00;99.90
27619;DHT22;15039;50.830;4.730;2022-11-15T17:22:07;13.10;99.90
27619;DHT22;15039;50.830;4.730;2022-11-15T17:24:33;13.20;99.90
27619;DHT22;15039;50.830;4.730;2022-11-15T17:26:59;13.20;99.90
27619;DHT22;15039;50.830;4.730;2022-11-15T17:29:24;13.20;99.90
27619;DHT22;15039;50.830;4.730;2022-11-15T17:31:50;13.20;99.90
27619;DHT22;15039;50.830;4.730;2022-11-15T17:34:15;13.30;99.90
27619;DHT22;15039;50.830;4.730;2022-11-15T17:36:41;13.30;99.90
27619;DHT22;15039;50.830;4.730;2022-11-15T17:39:07;13.20;99.90
27619;DHT22;15039;50.830;4.730;2022-11-15T17:41:32;13.20;99.90
27619;DHT22;15039;50.830;4.730;2022-11-15T17:43:58;13.10;99.90
27619;DHT22;15039;50.830;4.730;2022-11-15T17:46:25;13.10;99.90
27619;DHT22;15039;50.830;4.730;2022-11-15T17:48:51;13.10;99.90
27619;DHT22;15039;50.830;4.730;2022-11-15T17:51:17;13.00;99.90
27619;DHT22;15039;50.830;4.730;2022-11-15T17:53:46;13.00;99.90
27619;DHT22;15039;50.830;4.730;2022-11-15T17:56:24;13.10;99.90